Time;durP1;ratioP1;P1;durP2;ratioP2;P2;SDS_P1;SDS_P2;PMS_P1;PMS_P2;Temp;Humidity;BMP_temperature;BMP_pressure;BME280_temperature;BME280_humidity;BME280_pressure;Samples;Min_cycle;Max_cycle;Signal;HPM_P1;HPM_P2
2022/07/10 00:00:56;;;;;;;4.87;1.92;;;;;;;15.15;61.61;101033.97;1685241;83;21109;-86
2022/07/10 00:03:24;;;;;;;6.30;1.67;;;;;;;15.16;61.59;101039.70;1686164;84;21108;-85
2022/07/10 00:05:51;;;;;;;7.87;2.10;;;;;;;15.18;61.56;101041.93;1684735;84;21903;-84
2022/07/10 00:08:19;;;;;;;8.03;2.10;;;;;;;15.18;61.56;101045.91;1676675;83;21577;-86
2022/07/10 00:10:47;;;;;;;5.92;1.80;;;;;;;15.18;61.51;101048.56;1679075;83;21606;-86
2022/07/10 00:13:14;;;;;;;6.65;2.50;;;;;;;15.18;61.54;101047.68;1684456;84;21599;-85
2022/07/10 00:15:41;;;;;;;6.40;1.62;;;;;;;15.18;61.53;101054.31;1682208;84;21364;-85
2022/07/10 00:18:09;;;;;;;6.95;2.20;;;;;;;15.16;61.56;101051.63;1688704;84;21757;-86
2022/07/10 00:20:37;;;;;;;3.08;1.50;;;;;;;15.15;61.60;101052.08;1679935;83;21567;-87
2022/07/10 00:23:07;;;;;;;5.45;2.12;;;;;;;15.14;61.61;101053.38;1686342;84;21074;-87
2022/07/10 00:25:35;;;;;;;5.25;2.10;;;;;;;15.13;61.64;101052.95;1684067;83;21636;-87
2022/07/10 00:28:04;;;;;;;6.30;2.08;;;;;;;15.10;61.64;101051.13;1679012;84;21547;-86
2022/07/10 00:30:31;;;;;;;4.30;1.62;;;;;;;15.07;61.62;101051.12;1692864;84;21733;-87
2022/07/10 00:32:59;;;;;;;6.45;1.95;;;;;;;15.03;61.55;101051.92;1657211;83;21117;-89
2022/07/10 00:35:26;;;;;;;8.23;2.62;;;;;;;14.95;61.56;101046.54;1690994;83;21090;-88
2022/07/10 00:37:54;;;;;;;4.65;1.45;;;;;;;14.85;61.62;101038.04;1678224;83;21077;-88
2022/07/10 00:40:22;;;;;;;6.78;1.82;;;;;;;14.77;61.71;101041.02;1690821;83;21042;-88
2022/07/10 00:42:49;;;;;;;8.30;1.80;;;;;;;14.68;61.76;101033.86;1681760;83;21574;-89
2022/07/10 00:45:16;;;;;;;6.22;1.77;;;;;;;14.58;61.87;101030.20;1686765;83;21552;-88
2022/07/10 00:47:44;;;;;;;6.78;1.77;;;;;;;14.51;62.07;101030.95;1682815;83;21073;-87
2022/07/10 00:50:12;;;;;;;7.15;1.98;;;;;;;14.47;62.24;101023.84;1680210;84;21081;-87
2022/07/10 00:52:39;;;;;;;5.90;1.95;;;;;;;14.45;62.38;101018.97;1681505;83;21033;-86
2022/07/10 00:55:08;;;;;;;5.58;2.10;;;;;;;14.47;62.53;101020.28;1661553;85;21879;-86
2022/07/10 00:57:36;;;;;;;6.67;2.17;;;;;;;14.48;62.62;101020.75;1686042;83;21154;-86
2022/07/10 01:00:05;;;;;;;8.95;2.10;;;;;;;14.50;62.64;101015.03;1696757;83;21576;-86
2022/07/10 01:02:32;;;;;;;7.53;1.80;;;;;;;14.52;62.70;101013.30;1695712;84;21039;-86
2022/07/10 01:05:00;;;;;;;3.87;1.62;;;;;;;14.57;62.77;101006.34;1678693;83;21722;-88
2022/07/10 01:07:27;;;;;;;6.45;2.00;;;;;;;14.61;62.74;101009.92;1683696;84;21740;-87
2022/07/10 01:09:56;;;;;;;7.72;2.10;;;;;;;14.60;62.77;101006.36;1681141;83;21089;-87
2022/07/10 01:12:23;;;;;;;5.75;1.85;;;;;;;14.63;62.85;101011.70;1698827;83;21861;-88
2022/07/10 01:14:51;;;;;;;8.83;2.50;;;;;;;14.66;62.89;101007.78;1677504;83;22093;-87
2022/07/10 01:17:19;;;;;;;7.42;1.90;;;;;;;14.71;62.89;101016.66;1685718;84;21025;-88
2022/07/10 01:19:46;;;;;;;11.45;1.90;;;;;;;14.73;62.88;101017.59;1677489;85;21870;-86
2022/07/10 01:22:14;;;;;;;6.47;1.80;;;;;;;14.74;62.92;101007.88;1679978;84;21658;-86
2022/07/10 01:24:41;;;;;;;8.13;2.37;;;;;;;14.78;62.95;101009.23;1684274;83;21116;-86
2022/07/10 01:27:08;;;;;;;7.45;1.72;;;;;;;14.81;62.98;101010.14;1675846;83;21077;-87
2022/07/10 01:29:36;;;;;;;8.73;1.82;;;;;;;14.85;62.98;101010.22;1685226;83;21041;-86
2022/07/10 01:32:04;;;;;;;7.15;1.70;;;;;;;14.87;62.94;101007.14;1676120;84;21630;-86
2022/07/10 01:34:32;;;;;;;8.20;2.20;;;;;;;14.89;62.97;101001.86;1675140;83;21065;-87
2022/07/10 01:36:59;;;;;;;5.97;1.75;;;;;;;14.92;62.94;100997.48;1672603;84;21050;-86
2022/07/10 01:39:27;;;;;;;6.60;1.65;;;;;;;14.95;62.96;100997.50;1685041;84;21140;-86
2022/07/10 01:41:54;;;;;;;8.18;1.80;;;;;;;14.98;62.99;100997.99;1687966;83;21098;-86
2022/07/10 01:44:22;;;;;;;7.72;1.95;;;;;;;15.00;62.95;100996.66;1651838;85;21751;-87
2022/07/10 01:46:49;;;;;;;7.95;2.00;;;;;;;15.00;62.92;100994.92;1627319;87;21082;-87
2022/07/10 01:49:17;;;;;;;9.35;2.00;;;;;;;15.02;62.92;100996.27;1642378;84;21630;-86
2022/07/10 01:51:44;;;;;;;9.60;1.90;;;;;;;15.01;62.96;100999.78;1666760;84;21070;-86
2022/07/10 01:54:11;;;;;;;4.83;2.12;;;;;;;15.00;62.95;100997.98;1671917;84;21050;-86
2022/07/10 01:56:39;;;;;;;7.92;1.77;;;;;;;14.99;62.95;100997.10;1667848;84;21595;-85
2022/07/10 01:59:06;;;;;;;6.47;2.00;;;;;;;14.96;63.01;100991.79;1669369;84;21081;-87
2022/07/10 02:01:33;;;;;;;7.35;1.92;;;;;;;14.93;63.09;100993.95;1680086;84;21141;-87
2022/07/10 02:06:46;;;;;;;6.40;1.82;;;;;;;14.90;63.28;100987.72;1678193;83;21562;-87
2022/07/10 02:09:15;;;;;;;7.65;1.98;;;;;;;14.90;63.42;100984.66;1688548;83;21159;-87
2022/07/10 02:11:42;;;;;;;7.30;2.27;;;;;;;14.91;63.50;100979.80;1695650;83;21015;-85
2022/07/10 02:14:10;;;;;;;8.50;3.30;;;;;;;14.93;63.51;100980.70;1667169;84;21083;-85
2022/07/10 02:16:38;;;;;;;9.55;2.45;;;;;;;14.95;63.58;100976.30;1692249;84;21129;-85
2022/07/10 02:19:05;;;;;;;6.72;1.90;;;;;;;14.96;63.65;100972.79;1679018;83;21097;-87
2022/07/10 02:21:32;;;;;;;8.18;2.10;;;;;;;14.97;63.80;100963.06;1677759;84;21829;-85
2022/07/10 02:24:00;;;;;;;5.78;2.00;;;;;;;14.96;63.94;100964.84;1677767;84;21049;-85
2022/07/10 02:26:28;;;;;;;4.45;1.60;;;;;;;14.92;63.92;100955.08;1678044;84;21548;-87
2022/07/10 02:28:56;;;;;;;5.42;1.80;;;;;;;14.91;63.96;100952.41;1681596;83;21067;-84
2022/07/10 02:31:23;;;;;;;5.55;1.72;;;;;;;14.89;64.06;100948.41;1677302;83;21118;-86
2022/07/10 02:33:50;;;;;;;5.95;1.70;;;;;;;14.86;64.17;100949.69;1677345;85;21781;-86
2022/07/10 02:36:18;;;;;;;6.62;1.60;;;;;;;14.86;64.17;100954.11;1677180;83;21568;-86
2022/07/10 02:38:45;;;;;;;8.55;1.87;;;;;;;14.86;64.12;100944.84;1677835;83;21061;-85
2022/07/10 02:41:13;;;;;;;3.67;1.55;;;;;;;14.87;64.10;100942.66;1677662;83;21065;-84
2022/07/10 02:43:40;;;;;;;3.37;1.70;;;;;;;14.86;63.96;100950.14;1677921;83;21610;-84
2022/07/10 02:46:07;;;;;;;7.30;1.70;;;;;;;14.85;63.94;100944.41;1677978;83;22907;-85
2022/07/10 02:48:35;;;;;;;6.17;1.52;;;;;;;14.86;63.96;100947.48;1677295;83;21089;-87
2022/07/10 02:51:02;;;;;;;4.65;1.87;;;;;;;14.85;63.86;100943.08;1677316;83;21214;-85
2022/07/10 02:53:30;;;;;;;8.00;1.70;;;;;;;14.85;63.77;100953.23;1677432;83;21102;-87
2022/07/10 02:55:58;;;;;;;5.20;1.62;;;;;;;14.86;63.77;100952.34;1677879;84;21552;-86
2022/07/10 02:58:25;;;;;;;6.92;1.47;;;;;;;14.86;63.81;100943.06;1672582;83;22730;-85
2022/07/10 03:00:53;;;;;;;5.55;1.42;;;;;;;14.82;63.87;100949.66;1677074;84;21081;-84
2022/07/10 03:03:21;;;;;;;8.40;1.72;;;;;;;14.80;64.01;100944.78;1677331;83;21571;-84
2022/07/10 03:05:48;;;;;;;4.67;1.45;;;;;;;14.79;64.06;100943.91;1695274;84;21066;-86
2022/07/10 03:08:16;;;;;;;7.62;1.85;;;;;;;14.76;64.24;100940.77;1681183;84;21066;-86
2022/07/10 03:10:44;;;;;;;5.40;1.72;;;;;;;14.73;64.31;100950.44;1679655;83;21792;-85
2022/07/10 03:13:11;;;;;;;9.53;2.05;;;;;;;14.74;64.53;100957.53;1680020;83;21606;-85
2022/07/10 03:15:39;;;;;;;13.95;2.58;;;;;;;14.73;64.89;100957.06;1679906;83;21081;-86
2022/07/10 03:18:06;;;;;;;9.63;2.30;;;;;;;14.70;65.29;100954.40;1680259;83;21144;-86
2022/07/10 03:20:33;;;;;;;7.67;2.12;;;;;;;14.66;65.63;100949.50;1679502;84;21062;-85
2022/07/10 03:23:01;;;;;;;7.00;1.80;;;;;;;14.65;65.89;100947.70;1680054;84;21876;-86
2022/07/10 03:25:28;;;;;;;9.35;1.90;;;;;;;14.65;66.24;100945.50;1679862;84;21097;-86
2022/07/10 03:27:56;;;;;;;8.78;1.57;;;;;;;14.66;66.22;100951.23;1680083;84;21615;-86
2022/07/10 03:30:23;;;;;;;8.80;2.05;;;;;;;14.67;66.68;100939.78;1680685;84;21074;-87
2022/07/10 03:32:51;;;;;;;8.00;2.67;;;;;;;14.70;66.81;100942.47;1680487;84;21077;-85
2022/07/10 03:35:18;;;;;;;5.78;2.25;;;;;;;14.72;66.95;100944.25;1680265;83;21739;-85
2022/07/10 03:37:46;;;;;;;9.28;1.85;;;;;;;14.73;67.04;100938.09;1680639;83;21090;-85
2022/07/10 03:40:16;;;;;;;7.22;1.92;;;;;;;14.73;67.16;100930.56;1679643;84;21081;-87
2022/07/10 03:42:43;;;;;;;7.70;1.90;;;;;;;14.77;67.39;100931.05;1678199;84;22210;-84
2022/07/10 03:45:11;;;;;;;6.47;1.90;;;;;;;14.82;67.56;100925.81;1678850;83;21594;-84
2022/07/10 03:47:39;;;;;;;7.12;2.10;;;;;;;14.89;67.76;100925.88;1678429;84;22484;-85
2022/07/10 03:50:07;;;;;;;10.48;2.22;;;;;;;15.00;67.84;100925.08;1679273;83;21113;-85
2022/07/10 03:52:34;;;;;;;8.85;2.02;;;;;;;15.10;67.75;100929.63;1679479;83;21097;-86
2022/07/10 03:55:01;;;;;;;8.63;1.72;;;;;;;15.19;67.87;100923.52;1672891;83;21070;-86
2022/07/10 04:00:15;;;;;;;6.40;1.72;;;;;;;15.48;67.91;100916.66;1690063;83;21846;-87
2022/07/10 04:02:43;;;;;;;9.18;1.80;;;;;;;15.83;67.79;100921.82;1679629;84;21050;-82
2022/07/10 04:05:10;;;;;;;5.58;1.35;;;;;;;17.45;69.87;100912.54;1671723;83;21130;-83
2022/07/10 04:07:37;;;;;;;8.88;2.17;;;;;;;18.04;65.78;100914.24;1680035;84;21093;-85
2022/07/10 04:10:09;;;;;;;9.88;2.10;;;;;;;17.90;64.64;100902.73;1677584;83;21077;-87
2022/07/10 04:12:36;;;;;;;6.87;1.72;;;;;;;17.88;64.43;100909.39;1666479;84;22560;-85
2022/07/10 04:15:04;;;;;;;5.55;1.60;;;;;;;18.14;64.88;100910.22;1678238;83;21049;-85
2022/07/10 04:17:32;;;;;;;5.40;1.60;;;;;;;19.81;66.24;100907.75;1685741;83;21109;-84
2022/07/10 04:20:00;;;;;;;4.03;1.50;;;;;;;22.25;64.94;100901.34;1675900;84;21645;-86
2022/07/10 04:22:27;;;;;;;4.35;1.65;;;;;;;24.62;61.69;100895.33;1678542;84;21110;-84
2022/07/10 04:24:55;;;;;;;4.65;1.50;;;;;;;26.50;58.77;100895.13;1682667;84;21742;-84
2022/07/10 04:27:23;;;;;;;3.15;1.27;;;;;;;28.06;55.71;100900.35;1675620;84;21113;-87
2022/07/10 04:29:50;;;;;;;5.15;1.52;;;;;;;29.27;52.77;100892.31;1648405;84;21050;-84
2022/07/10 04:32:17;;;;;;;4.53;1.45;;;;;;;30.27;50.61;100899.74;1685081;83;21164;-86
2022/07/10 04:34:45;;;;;;;4.42;1.55;;;;;;;31.30;48.87;100894.40;1674213;84;21155;-84
2022/07/10 04:37:12;;;;;;;4.85;1.80;;;;;;;32.46;46.99;100890.91;1674900;84;21843;-87
2022/07/10 04:39:39;;;;;;;6.75;2.10;;;;;;;31.90;43.58;100893.01;1705535;83;21101;-85
2022/07/10 04:42:07;;;;;;;3.83;1.40;;;;;;;31.71;43.10;100894.64;1682586;84;21097;-84
2022/07/10 04:44:36;;;;;;;2.50;1.15;;;;;;;32.57;43.28;100892.48;1675542;84;21435;-84
2022/07/10 04:47:03;;;;;;;2.95;1.42;;;;;;;33.53;41.86;100887.48;1675903;83;21096;-84
2022/07/10 04:49:31;;;;;;;3.33;1.50;;;;;;;34.41;40.15;100888.50;1677908;84;21758;-86
2022/07/10 04:51:58;;;;;;;3.55;1.32;;;;;;;35.15;38.99;100880.77;1683721;83;21088;-87
2022/07/10 04:54:26;;;;;;;2.60;1.17;;;;;;;34.63;36.58;100883.70;1676224;83;21064;-88
2022/07/10 04:56:53;;;;;;;3.87;1.30;;;;;;;33.53;36.43;100884.75;1678442;84;21233;-85
2022/07/10 04:59:21;;;;;;;3.42;1.40;;;;;;;31.48;35.96;100888.35;1688901;83;21155;-89
2022/07/10 05:01:50;;;;;;;3.35;1.27;;;;;;;29.15;36.69;100886.17;1687578;83;22495;-90
2022/07/10 05:04:19;;;;;;;3.05;1.25;;;;;;;27.29;37.86;100882.06;1680445;84;21130;-89
2022/07/10 05:06:56;;;;;;;4.85;1.40;;;;;;;25.77;39.10;100884.78;1689638;84;21141;-89
2022/07/10 05:09:27;;;;;;;5.35;1.70;;;;;;;24.58;40.29;100885.12;1688842;83;21181;-91
2022/07/10 05:11:55;;;;;;;2.40;1.30;;;;;;;23.53;41.49;100891.20;1691441;84;21672;-91
2022/07/10 05:14:22;;;;;;;5.45;1.07;;;;;;;22.73;42.69;100890.92;1680779;83;21731;-86
2022/07/10 05:16:49;;;;;;;4.35;1.25;;;;;;;22.02;43.54;100897.33;1687751;83;21082;-84
2022/07/10 05:19:20;;;;;;;3.45;1.37;;;;;;;21.41;44.43;100899.78;1671855;84;21078;-85
2022/07/10 05:21:46;;;;;;;6.33;1.45;;;;;;;21.04;45.26;100887.91;1691089;84;21549;-85
2022/07/10 05:24:13;;;;;;;4.37;2.20;;;;;;;20.75;46.03;100896.37;1690434;83;21130;-84
2022/07/10 05:26:40;;;;;;;5.37;1.62;;;;;;;20.63;46.62;100897.44;1689271;83;21759;-86
2022/07/10 05:29:08;;;;;;;3.45;1.20;;;;;;;20.53;47.04;100897.09;1686229;84;21082;-85
2022/07/10 05:31:35;;;;;;;4.15;1.50;;;;;;;20.67;47.99;100896.95;1690218;84;21121;-86
2022/07/10 05:34:05;;;;;;;2.98;1.22;;;;;;;22.09;49.45;100893.62;1690565;84;21082;-85
2022/07/10 05:36:33;;;;;;;5.22;1.60;;;;;;;24.70;47.87;100890.60;1690545;84;21102;-85
2022/07/10 05:39:00;;;;;;;2.37;1.20;;;;;;;25.21;44.75;100888.48;1692155;84;21758;-85
2022/07/10 05:41:28;;;;;;;3.60;1.20;;;;;;;24.82;44.28;100882.12;1684688;84;21043;-84
2022/07/10 05:43:55;;;;;;;3.67;1.65;;;;;;;24.47;44.16;100884.53;1692528;84;21165;-85
2022/07/10 05:46:22;;;;;;;4.20;1.35;;;;;;;23.91;43.86;100883.92;1686995;83;21275;-85
2022/07/10 05:48:51;;;;;;;3.25;1.77;;;;;;;23.25;44.48;100883.86;1687213;84;21602;-84
2022/07/10 05:51:19;;;;;;;3.20;1.37;;;;;;;22.79;44.74;100892.14;1673025;84;22738;-84
2022/07/10 05:53:46;;;;;;;4.62;1.40;;;;;;;22.30;45.44;100894.99;1684452;84;21090;-84
2022/07/10 05:56:14;;;;;;;3.20;2.20;;;;;;;22.02;45.72;100903.16;1654254;84;21047;-84
2022/07/10 05:58:41;;;;;;;4.25;1.50;;;;;;;21.64;46.07;100895.38;1694410;84;21583;-85
2022/07/10 06:01:08;;;;;;;4.92;1.47;;;;;;;21.48;46.52;100904.16;1688061;83;21076;-84
2022/07/10 06:03:36;;;;;;;2.95;1.27;;;;;;;21.29;46.87;100903.56;1688842;84;21743;-84
2022/07/10 06:06:03;;;;;;;2.83;1.27;;;;;;;21.24;47.29;100910.31;1681210;84;21043;-84
2022/07/10 06:08:31;;;;;;;3.98;1.30;;;;;;;21.18;47.62;100906.41;1685464;84;21627;-84
2022/07/10 06:10:58;;;;;;;4.15;2.05;;;;;;;21.16;47.86;100911.78;1692322;84;21070;-83
2022/07/10 06:13:27;;;;;;;3.33;1.17;;;;;;;20.99;47.88;100912.97;1691442;83;21594;-85
2022/07/10 06:15:55;;;;;;;4.05;1.42;;;;;;;20.76;48.42;100919.09;1692954;84;21903;-85
2022/07/10 06:18:22;;;;;;;3.10;1.12;;;;;;;20.61;48.46;100915.30;1690407;83;21122;-85
2022/07/10 06:20:49;;;;;;;3.75;1.37;;;;;;;20.41;48.83;100923.55;1696830;84;21604;-88
2022/07/10 06:23:17;;;;;;;3.02;1.10;;;;;;;20.23;49.34;100921.09;1692267;84;21379;-85
2022/07/10 06:25:49;;;;;;;4.10;1.37;;;;;;;19.87;49.96;100905.47;1690597;84;22255;-88
2022/07/10 06:28:21;;;;;;;2.83;1.25;;;;;;;19.71;50.25;100926.09;1692739;84;22682;-90
2022/07/10 06:30:48;;;;;;;2.72;1.05;;;;;;;19.71;50.25;100926.09;1695846;83;21099;-85
2022/07/10 06:33:16;;;;;;;3.77;1.32;;;;;;;19.61;50.81;100925.30;1691821;84;21079;-86
2022/07/10 06:35:43;;;;;;;2.15;1.00;;;;;;;19.65;51.24;100915.45;1698252;83;21075;-86
2022/07/10 06:38:11;;;;;;;2.40;1.02;;;;;;;19.70;51.06;100922.97;1693121;84;21187;-87
2022/07/10 06:40:38;;;;;;;3.35;1.10;;;;;;;19.73;51.32;100920.77;1688400;84;21782;-86
2022/07/10 06:43:09;;;;;;;4.05;1.07;;;;;;;19.78;51.51;100922.92;1694288;83;21080;-89
2022/07/10 06:45:39;;;;;;;2.47;0.98;;;;;;;19.88;51.72;100917.06;1695007;84;21175;-85
2022/07/10 06:48:06;;;;;;;5.25;1.57;;;;;;;19.92;51.48;100921.00;1691184;84;21896;-88
2022/07/10 06:50:34;;;;;;;3.95;0.78;;;;;;;19.67;51.50;100908.33;1689028;84;21372;-87
2022/07/10 06:53:02;;;;;;;3.02;1.30;;;;;;;19.76;51.92;100923.39;1688558;84;21784;-88
2022/07/10 06:55:29;;;;;;;4.00;1.95;;;;;;;19.69;51.59;100929.23;1692222;84;21071;-87
2022/07/10 06:57:57;;;;;;;3.20;1.40;;;;;;;19.58;51.83;100927.11;1721470;81;21035;-88
2022/07/10 07:00:25;;;;;;;3.85;2.35;;;;;;;19.57;52.21;100917.31;1695668;84;21039;-86
2022/07/10 07:02:55;;;;;;;3.35;1.50;;;;;;;19.73;52.48;100916.77;1680019;84;21110;-87
2022/07/10 07:05:22;;;;;;;1.27;0.80;;;;;;;20.03;52.55;100912.88;1691851;83;21931;-89
2022/07/10 07:07:49;;;;;;;3.50;1.52;;;;;;;20.25;52.15;100920.63;1694798;84;21057;-85
2022/07/10 07:10:17;;;;;;;2.22;1.42;;;;;;;20.37;52.07;100920.48;1685789;83;21177;-86
2022/07/10 07:12:45;;;;;;;2.90;1.60;;;;;;;20.41;51.72;100915.52;1687862;84;21263;-89
2022/07/10 07:15:15;;;;;;;5.72;1.80;;;;;;;20.35;51.60;100906.26;1688672;84;21043;-87
2022/07/10 07:17:56;;;;;;;2.25;1.00;;;;;;;20.26;51.68;100911.72;1694002;84;21783;-92
2022/07/10 07:23:11;;;;;;;3.37;1.40;;;;;;;20.36;51.60;100905.33;1672999;84;22059;-90
2022/07/10 07:25:41;;;;;;;4.95;1.50;;;;;;;20.51;51.65;100900.23;1692501;84;21086;-87
2022/07/10 07:28:15;;;;;;;3.90;1.37;;;;;;;21.20;51.46;100892.54;1693117;84;21091;-89
2022/07/10 07:30:43;;;;;;;2.00;0.95;;;;;;;21.20;51.46;100892.54;1693550;83;21783;-89
2022/07/10 07:33:10;;;;;;;3.83;1.47;;;;;;;21.51;50.80;100898.29;1692275;84;21059;-89
2022/07/10 07:35:38;;;;;;;2.60;1.20;;;;;;;21.64;50.66;100884.22;1690442;83;21242;-86
2022/07/10 07:38:05;;;;;;;5.45;1.80;;;;;;;21.84;50.45;100884.29;1688407;84;21082;-87
2022/07/10 07:40:33;;;;;;;3.90;1.27;;;;;;;22.11;50.17;100890.87;1689149;84;21561;-87
2022/07/10 07:43:00;;;;;;;3.35;1.30;;;;;;;22.29;49.59;100900.38;1690308;84;22795;-89
2022/07/10 07:45:29;;;;;;;5.03;1.55;;;;;;;22.26;49.17;100897.33;1692561;84;21606;-90
2022/07/10 07:47:57;;;;;;;3.00;1.30;;;;;;;22.10;49.03;100899.39;1687337;84;21067;-88
2022/07/10 07:50:34;;;;;;;5.95;1.47;;;;;;;21.97;49.15;100903.70;1679003;84;39060;-86
2022/07/10 07:53:03;;;;;;;2.87;1.20;;;;;;;21.93;49.09;100903.75;1694727;83;21122;-86
2022/07/10 07:55:31;;;;;;;6.30;1.30;;;;;;;21.92;49.52;100905.11;1695252;84;21768;-87
2022/07/10 07:57:58;;;;;;;5.40;1.52;;;;;;;22.02;49.26;100901.35;1654727;84;21587;-90
2022/07/10 08:00:28;;;;;;;5.15;1.55;;;;;;;21.97;49.08;100907.25;1694709;83;21079;-87
2022/07/10 08:02:57;;;;;;;4.97;1.72;;;;;;;22.08;49.44;100907.05;1689703;84;21396;-87
2022/07/10 08:05:25;;;;;;;2.85;1.40;;;;;;;22.22;49.16;100902.73;1681785;83;21120;-89
2022/07/10 08:07:57;;;;;;;4.37;1.37;;;;;;;22.29;49.10;100899.05;1688846;83;21760;-90
2022/07/10 08:10:26;;;;;;;6.83;2.22;;;;;;;22.25;48.88;100904.02;1694600;83;21679;-88
2022/07/10 08:12:55;;;;;;;3.35;1.82;;;;;;;22.13;48.78;100906.50;1656032;84;21293;-91
2022/07/10 08:15:23;;;;;;;4.97;2.27;;;;;;;22.24;49.26;100906.26;1656687;85;21080;-89
2022/07/10 08:17:58;;;;;;;4.42;1.82;;;;;;;22.56;49.35;100901.60;1645970;86;21053;-91
2022/07/10 08:20:25;;;;;;;4.47;2.12;;;;;;;22.76;48.96;100891.73;1654611;85;21932;-91
2022/07/10 08:22:56;;;;;;;3.05;1.45;;;;;;;22.83;48.47;100896.52;1660454;84;21097;-90
2022/07/10 08:25:24;;;;;;;3.95;2.20;;;;;;;22.76;48.41;100899.78;1654452;84;21106;-95
2022/07/10 08:27:54;;;;;;;3.22;1.60;;;;;;;22.53;48.26;100904.34;1658785;84;21328;-92
2022/07/10 08:30:21;;;;;;;3.40;1.55;;;;;;;22.24;48.46;100903.58;1657206;85;21122;-90
2022/07/10 08:32:50;;;;;;;4.55;1.32;;;;;;;22.00;48.46;100911.22;1658470;85;21927;-92
2022/07/10 08:35:23;;;;;;;3.08;1.35;;;;;;;21.90;48.95;100911.86;1654277;85;21118;-92
2022/07/10 08:37:50;;;;;;;;;;;;;;;21.84;49.07;100905.27;1655843;85;21685;-90
2022/07/10 08:40:21;;;;;;;2.75;1.45;;;;;;;21.40;49.90;100909.61;1653209;85;20520;-91
2022/07/10 08:42:48;;;;;;;3.47;1.17;;;;;;;20.57;51.02;100914.85;1650231;86;21093;-91
2022/07/10 08:45:37;;;;;;;4.05;1.72;;;;;;;20.20;52.51;100910.88;1652029;85;22757;-94
2022/07/10 08:48:23;;;;;;;5.53;2.17;;;;;;;20.08;53.54;100940.86;1679123;85;21750;-90
2022/07/10 08:51:02;;;;;;;5.75;1.27;;;;;;;19.79;53.81;100891.32;1661843;85;21113;-88
2022/07/10 08:53:31;;;;;;;4.97;1.67;;;;;;;19.86;54.71;100911.73;1624755;88;21097;-91
2022/07/10 08:56:06;;;;;;;7.12;2.17;;;;;;;19.75;55.06;100875.77;1652310;86;21069;-94
2022/07/10 08:58:33;;;;;;;8.08;1.50;;;;;;;20.16;55.00;100913.62;1652616;86;21916;-94
2022/07/10 09:01:05;;;;;;;4.35;2.22;;;;;;;20.34;55.14;100916.05;1654008;85;21646;-91
2022/07/10 09:04:26;;;;;;;6.97;2.10;;;;;;;20.55;55.24;100912.66;1629046;87;21647;-93
2022/07/10 09:06:54;;;;;;;4.00;1.30;;;;;;;20.71;55.03;100914.25;1641591;86;21067;-89
2022/07/10 09:09:21;;;;;;;6.35;1.90;;;;;;;20.91;54.90;100912.63;1662898;85;21078;-88
2022/07/10 09:12:26;;;;;;;6.00;1.72;;;;;;;21.06;54.85;100903.91;1677339;83;21914;-92
2022/07/10 09:15:26;;;;;;;6.03;1.50;;;;;;;21.10;54.75;100898.97;1690359;83;21077;-94
2022/07/10 09:18:02;;;;;;;7.30;1.62;;;;;;;21.36;54.66;100901.22;1688513;83;21718;-88
2022/07/10 09:20:34;;;;;;;4.95;1.80;;;;;;;21.43;54.48;100904.19;1688149;83;21199;-86
2022/07/10 09:23:19;;;;;;;3.60;1.30;;;;;;;21.41;53.99;100893.08;1689437;84;21059;-88
2022/07/10 09:25:50;;;;;;;6.97;1.87;;;;;;;21.17;53.67;100889.91;1694843;83;21804;-89
2022/07/10 09:28:19;;;;;;;4.90;1.42;;;;;;;20.74;53.95;100887.90;1689150;84;21053;-91
2022/07/10 09:30:46;;;;;;;5.95;1.60;;;;;;;20.74;53.95;100887.90;1692430;84;21561;-89
2022/07/10 09:33:30;;;;;;;6.17;1.90;;;;;;;20.55;53.86;100888.16;1692361;83;21120;-89
2022/07/10 09:36:18;;;;;;;5.92;1.95;;;;;;;20.61;54.29;100888.56;1685848;83;21142;-90
2022/07/10 09:38:54;;;;;;;4.17;1.32;;;;;;;21.00;54.50;100896.87;1693693;83;22894;-86
2022/07/10 09:41:28;;;;;;;5.60;1.45;;;;;;;21.63;52.78;100897.17;1689596;84;21090;-88
2022/07/10 09:44:04;;;;;;;4.10;1.50;;;;;;;21.81;52.10;100891.03;1682236;84;21231;-87
2022/07/10 09:46:36;;;;;;;4.50;1.87;;;;;;;21.81;52.10;100891.03;1683028;85;21459;-91
2022/07/10 09:49:14;;;;;;;5.42;3.25;;;;;;;22.03;51.35;100896.86;1686020;84;21067;-90
2022/07/10 09:51:53;;;;;;;3.65;1.15;;;;;;;22.03;51.35;100896.86;1690589;84;21779;-88
2022/07/10 09:54:21;;;;;;;4.60;1.90;;;;;;;22.16;50.38;100898.37;1690644;83;21067;-92
2022/07/10 09:57:01;;;;;;;7.42;1.95;;;;;;;22.04;49.82;100906.22;1643593;85;21075;-93
2022/07/10 09:59:32;;;;;;;4.50;1.72;;;;;;;21.93;49.29;100900.19;1692760;84;21600;-92
2022/07/10 10:01:58;;;;;;;5.83;1.15;;;;;;;22.10;49.45;100894.49;1680681;84;21652;-90
2022/07/10 10:04:25;;;;;;;2.90;1.30;;;;;;;22.46;49.68;100895.53;1661310;84;22452;-93
2022/07/10 10:06:56;;;;;;;4.67;1.70;;;;;;;22.51;49.38;100899.47;1700014;84;21071;-88
2022/07/10 10:09:28;;;;;;;6.05;1.55;;;;;;;22.37;49.25;100913.62;1692895;83;21766;-89
2022/07/10 10:12:02;;;;;;;6.78;2.00;;;;;;;22.01;49.10;100926.38;1667064;84;21074;-91
2022/07/10 10:14:30;;;;;;;4.67;1.47;;;;;;;21.17;49.48;100913.99;1686478;84;21081;-86
2022/07/10 10:17:07;;;;;;;4.53;2.30;;;;;;;21.17;49.48;100913.99;1655538;86;21821;-90
2022/07/10 10:22:20;;;;;;;8.30;2.00;;;;;;;20.28;49.74;100920.59;1687759;84;21109;-90
2022/07/10 10:24:50;;;;;;;5.30;2.12;;;;;;;19.99;50.33;100948.55;1689596;83;21045;-94
2022/07/10 10:27:19;;;;;;;3.27;1.98;;;;;;;19.71;51.48;100955.92;1674407;84;21150;-87
2022/07/10 10:29:52;;;;;;;7.83;2.83;;;;;;;19.40;52.57;100936.16;1684202;84;21873;-89
2022/07/10 10:32:19;;;;;;;4.90;1.67;;;;;;;19.19;53.49;100942.09;1689903;84;21062;-87
2022/07/10 10:34:55;;;;;;;6.20;1.67;;;;;;;19.05;54.27;100936.00;1685587;84;21077;-87
2022/07/10 10:37:37;;;;;;;5.12;1.57;;;;;;;19.00;54.97;100932.02;1688728;84;21106;-91
2022/07/10 10:40:07;;;;;;;5.00;1.90;;;;;;;19.03;55.44;100939.09;1688846;84;21101;-87
2022/07/10 10:42:45;;;;;;;5.08;1.75;;;;;;;19.13;55.98;100935.94;1689371;83;21760;-92
2022/07/10 10:45:38;;;;;;;4.37;1.57;;;;;;;19.31;56.20;100937.56;1672622;84;21112;-88
2022/07/10 10:48:15;;;;;;;5.15;1.62;;;;;;;19.44;56.10;100929.89;1683070;84;21102;-87
2022/07/10 10:50:56;;;;;;;6.17;1.82;;;;;;;19.54;56.22;100932.02;1676224;84;21674;-88
2022/07/10 10:53:28;;;;;;;6.45;1.70;;;;;;;19.58;56.28;100942.67;1688636;84;21612;-88
2022/07/10 10:56:07;;;;;;;5.50;1.52;;;;;;;19.59;56.33;100951.56;1674530;85;22563;-88
2022/07/10 10:58:40;;;;;;;7.05;1.77;;;;;;;19.47;56.27;100949.89;1680265;84;21117;-88
2022/07/10 11:01:27;;;;;;;4.05;1.70;;;;;;;19.33;56.47;100950.44;1686880;84;21074;-91
2022/07/10 11:04:15;;;;;;;6.85;1.52;;;;;;;19.22;56.76;100945.22;1690164;84;21356;-91
2022/07/10 11:06:50;;;;;;;4.58;1.60;;;;;;;19.20;57.16;100945.22;1685918;84;21132;-89
2022/07/10 11:09:32;;;;;;;4.53;1.60;;;;;;;19.37;57.32;100937.50;1677173;84;22023;-88
2022/07/10 11:12:08;;;;;;;3.70;1.60;;;;;;;19.62;57.54;100935.06;1684378;84;21155;-86
2022/07/10 11:14:39;;;;;;;5.80;1.32;;;;;;;19.90;57.59;100940.63;1689065;84;21067;-86
2022/07/10 11:17:06;;;;;;;3.15;1.25;;;;;;;20.13;57.12;100940.38;1686894;84;21321;-84
2022/07/10 11:19:34;;;;;;;5.67;1.40;;;;;;;20.28;57.07;100940.19;1691820;84;21592;-86
2022/07/10 11:22:12;;;;;;;3.90;1.30;;;;;;;20.41;56.62;100937.38;1689111;84;21908;-90
2022/07/10 11:25:13;;;;;;;4.28;1.65;;;;;;;20.51;56.51;100939.88;1684321;84;21635;-87
2022/07/10 11:28:09;;;;;;;4.53;1.67;;;;;;;20.70;56.34;100942.35;1679792;82;21361;-91
2022/07/10 11:30:52;;;;;;;3.37;1.35;;;;;;;21.45;56.77;100938.55;1680068;84;21082;-89
2022/07/10 11:33:23;;;;;;;5.03;1.82;;;;;;;21.45;56.77;100938.55;1658278;85;21237;-89
2022/07/10 11:35:52;;;;;;;5.72;1.98;;;;;;;21.69;56.17;100940.38;1686518;84;21776;-89
2022/07/10 11:38:24;;;;;;;3.67;1.70;;;;;;;21.81;56.13;100951.33;1665434;84;21068;-92
2022/07/10 11:41:22;;;;;;;5.80;2.08;;;;;;;21.85;55.79;100957.08;1692441;84;21070;-91
2022/07/10 11:43:58;;;;;;;5.42;1.98;;;;;;;21.73;55.46;100956.83;1693079;84;21090;-89
2022/07/10 11:46:28;;;;;;;7.33;2.27;;;;;;;21.54;55.65;100950.91;1659683;84;21603;-88
2022/07/10 11:48:56;;;;;;;7.53;2.12;;;;;;;20.96;55.59;100933.95;1662945;84;22636;-91